Terminal Aerodrome Forecast
Issued by NWS

Home | Current Version | Previous Version | Text Only | Print | Product List | Glossary Off
Versions: 1 2 3 4 5 6 7 8 9 10 11 12 13 14

000
FTUS43 KGRB 232320
TAFCWA
TAF
KCWA 232320Z 2400/2424 24008KT P6SM BKN090
     FM240200 12003KT P6SM BKN080
     FM241500 15009G15KT P6SM BKN060
     FM242100 13009KT P6SM -SHRA SCT030 OVC050
      TEMPO 2423/2424 5SM -SHRA BKN025=

USA.gov is the U.S. government's official web portal to all federal, state and local government web resources and services.